createdAt,value
2023-04-29T00:02:18.715Z,8.40
2023-04-29T00:04:46.786Z,8.20
2023-04-29T00:07:15.987Z,8.10
2023-04-29T00:09:43.959Z,8.00
2023-04-29T00:12:12.158Z,7.90
2023-04-29T00:14:39.916Z,7.70
2023-04-29T00:17:08.250Z,7.70
2023-04-29T00:19:36.185Z,7.70
2023-04-29T00:22:03.895Z,7.70
2023-04-29T00:24:32.017Z,7.80
2023-04-29T00:26:59.725Z,7.80
2023-04-29T00:29:27.864Z,7.50
2023-04-29T00:31:55.731Z,7.50
2023-04-29T00:34:24.072Z,7.40
2023-04-29T00:36:51.793Z,7.40
2023-04-29T00:39:19.465Z,7.20
2023-04-29T00:41:47.438Z,7.30
2023-04-29T00:44:15.191Z,7.20
2023-04-29T00:46:43.365Z,7.00
2023-04-29T00:49:13.698Z,6.90
2023-04-29T00:51:44.311Z,7.00
2023-04-29T00:54:13.297Z,7.00
2023-04-29T00:56:44.265Z,7.00
2023-04-29T00:59:12.838Z,7.00
2023-04-29T01:01:40.629Z,6.90
2023-04-29T01:04:08.981Z,6.70
2023-04-29T01:06:57.403Z,6.70
2023-04-29T01:10:07.363Z,6.70
2023-04-29T01:12:51.045Z,6.60
2023-04-29T01:15:22.802Z,6.50
2023-04-29T01:18:06.092Z,6.60
2023-04-29T01:20:35.629Z,6.70
2023-04-29T01:23:03.930Z,6.60
2023-04-29T01:25:31.989Z,6.50
2023-04-29T01:28:14.796Z,6.50
2023-04-29T01:31:06.608Z,6.30
2023-04-29T01:34:08.760Z,6.30
2023-04-29T01:36:58.850Z,6.40
2023-04-29T01:39:31.347Z,6.40
2023-04-29T01:42:17.693Z,6.30
2023-04-29T01:44:49.479Z,6.30
2023-04-29T01:47:21.681Z,6.30
2023-04-29T01:49:53.781Z,6.30
2023-04-29T01:52:23.298Z,6.20
2023-04-29T01:54:57.866Z,6.10
2023-04-29T01:57:28.742Z,6.20
2023-04-29T02:00:20.165Z,6.20
2023-04-29T02:02:52.316Z,6.30
2023-04-29T02:05:41.537Z,6.30
2023-04-29T02:08:09.271Z,6.30
2023-04-29T02:10:41.751Z,6.30
2023-04-29T02:13:20.228Z,6.30
2023-04-29T02:15:48.367Z,6.30
2023-04-29T02:18:16.985Z,6.20
2023-04-29T02:20:45.074Z,6.20
2023-04-29T02:23:13.829Z,6.30
2023-04-29T02:25:41.610Z,6.20
2023-04-29T02:28:09.833Z,6.10
2023-04-29T02:30:40.713Z,6.00
2023-04-29T02:33:09.702Z,6.10
2023-04-29T02:35:37.541Z,6.20
2023-04-29T02:38:05.263Z,6.20
2023-04-29T02:40:33.052Z,6.10
2023-04-29T02:43:01.648Z,6.10
2023-04-29T02:45:29.876Z,6.20
2023-04-29T02:47:57.628Z,6.10
2023-04-29T02:50:26.273Z,5.90
2023-04-29T02:52:54.454Z,6.00
2023-04-29T02:55:22.299Z,5.90
2023-04-29T02:57:50.049Z,5.90
2023-04-29T03:00:17.903Z,5.80
2023-04-29T03:02:45.805Z,5.80
2023-04-29T03:05:15.633Z,5.80
2023-04-29T03:07:44.369Z,5.70
2023-04-29T03:10:12.551Z,5.80
2023-04-29T03:12:40.453Z,5.80
2023-04-29T03:15:08.643Z,5.80
2023-04-29T03:17:36.804Z,5.70
2023-04-29T03:20:06.389Z,5.80
2023-04-29T03:22:34.986Z,5.80
2023-04-29T03:25:03.023Z,5.70
2023-04-29T03:27:30.907Z,5.50
2023-04-29T03:29:58.847Z,5.40
2023-04-29T03:32:27.006Z,5.50
2023-04-29T03:34:55.472Z,5.50
2023-04-29T03:37:36.292Z,5.60
2023-04-29T03:40:17.145Z,5.60
2023-04-29T03:42:46.186Z,5.60
2023-04-29T03:45:14.617Z,5.60
2023-04-29T03:47:42.655Z,5.60
2023-04-29T03:50:12.452Z,5.60
2023-04-29T03:52:41.580Z,5.70
2023-04-29T03:55:13.251Z,5.80
2023-04-29T03:57:42.460Z,5.90
2023-04-29T04:00:11.762Z,5.90
2023-04-29T04:02:46.926Z,5.90
2023-04-29T04:05:15.995Z,6.00
2023-04-29T04:07:49.351Z,6.00
2023-04-29T04:10:35.684Z,6.00
2023-04-29T04:13:08.026Z,5.90
2023-04-29T04:15:36.100Z,5.90
2023-04-29T04:18:04.200Z,5.90
2023-04-29T04:20:32.078Z,5.90
2023-04-29T04:23:00.175Z,6.00
2023-04-29T04:25:30.660Z,5.90
2023-04-29T04:28:09.502Z,6.00
2023-04-29T04:30:52.804Z,6.00
2023-04-29T04:33:20.881Z,6.20
2023-04-29T04:35:50.165Z,6.30
2023-04-29T04:38:18.073Z,6.30
2023-04-29T04:40:46.276Z,6.30
2023-04-29T04:43:26.900Z,6.40
2023-04-29T04:45:54.791Z,6.50
2023-04-29T04:48:22.474Z,6.50
2023-04-29T04:50:51.825Z,6.50
2023-04-29T04:53:19.598Z,6.50
2023-04-29T04:55:54.818Z,6.50
2023-04-29T04:58:27.975Z,6.50
2023-04-29T05:00:56.173Z,6.60
2023-04-29T05:03:24.095Z,6.60
2023-04-29T05:05:59.296Z,6.60
2023-04-29T05:08:27.546Z,6.70
2023-04-29T05:10:58.364Z,6.80
2023-04-29T05:13:26.959Z,7.00
2023-04-29T05:15:54.916Z,7.00
2023-04-29T05:18:26.847Z,7.10
2023-04-29T05:20:54.695Z,7.10
2023-04-29T05:23:24.095Z,7.20
2023-04-29T05:25:53.091Z,7.20
2023-04-29T05:28:21.003Z,7.40
2023-04-29T05:30:52.053Z,7.40
2023-04-29T05:33:20.780Z,7.50
2023-04-29T05:35:48.694Z,7.60
2023-04-29T05:38:16.580Z,7.50
2023-04-29T05:41:03.973Z,7.60
2023-04-29T05:43:46.966Z,7.60
2023-04-29T05:46:19.851Z,7.80
2023-04-29T05:48:47.673Z,8.00
2023-04-29T05:51:16.618Z,8.00
2023-04-29T05:53:45.305Z,8.10
2023-04-29T05:56:13.019Z,8.20
2023-04-29T05:58:41.417Z,8.30
2023-04-29T06:01:09.122Z,8.30
2023-04-29T06:03:37.516Z,8.40
2023-04-29T06:06:29.206Z,8.50
2023-04-29T06:09:19.860Z,8.50
2023-04-29T06:11:55.087Z,8.50
2023-04-29T06:14:22.918Z,8.70
2023-04-29T06:16:51.117Z,9.00
2023-04-29T06:19:19.638Z,9.20
2023-04-29T06:21:49.971Z,9.50
2023-04-29T06:24:22.588Z,9.50
2023-04-29T06:26:51.587Z,9.40
2023-04-29T06:29:20.255Z,9.60
2023-04-29T06:31:48.043Z,9.60
2023-04-29T06:34:18.106Z,9.60
2023-04-29T06:37:02.364Z,9.70
2023-04-29T06:39:50.200Z,9.70
2023-04-29T06:42:39.858Z,9.80
2023-04-29T06:45:48.807Z,9.80
2023-04-29T06:48:26.433Z,9.70
2023-04-29T06:50:58.684Z,9.70
2023-04-29T06:53:26.860Z,9.80
2023-04-29T06:55:54.764Z,9.80
2023-04-29T06:58:22.441Z,10.00
2023-04-29T07:00:51.593Z,10.10
2023-04-29T07:03:19.584Z,10.30
2023-04-29T07:05:47.916Z,10.30
2023-04-29T07:08:15.848Z,10.20
2023-04-29T07:10:44.049Z,10.10
2023-04-29T07:13:11.948Z,10.10
2023-04-29T07:15:39.892Z,10.40
2023-04-29T07:18:07.788Z,10.20
2023-04-29T07:20:37.266Z,10.40
2023-04-29T07:23:05.771Z,10.60
2023-04-29T07:25:34.179Z,10.40
2023-04-29T07:28:02.280Z,10.50
2023-04-29T07:30:30.274Z,10.30
2023-04-29T07:32:58.192Z,10.60
2023-04-29T07:35:26.215Z,10.50
2023-04-29T07:37:54.187Z,11.00
2023-04-29T07:40:22.110Z,11.50
2023-04-29T07:42:54.859Z,11.80
2023-04-29T07:45:22.798Z,11.80
2023-04-29T07:47:50.663Z,11.90
2023-04-29T07:50:18.592Z,12.10
2023-04-29T07:52:47.877Z,12.20
2023-04-29T07:55:17.852Z,12.10
2023-04-29T07:57:46.152Z,11.90
2023-04-29T08:00:14.180Z,12.10
2023-04-29T08:02:55.312Z,12.20
2023-04-29T08:05:25.702Z,12.80
2023-04-29T08:07:54.240Z,13.00
2023-04-29T08:10:22.994Z,12.80
2023-04-29T08:12:51.244Z,13.10
2023-04-29T08:15:20.397Z,13.10
2023-04-29T08:17:48.199Z,13.10
2023-04-29T08:20:15.947Z,12.70
2023-04-29T08:22:43.759Z,12.70
2023-04-29T08:25:11.924Z,12.70
2023-04-29T08:27:39.734Z,12.90
2023-04-29T08:30:08.279Z,13.00
2023-04-29T08:32:36.120Z,13.00
2023-04-29T08:35:04.141Z,12.90
2023-04-29T08:37:32.085Z,13.00
2023-04-29T08:39:59.739Z,13.20
2023-04-29T08:42:35.182Z,13.10
2023-04-29T08:45:04.746Z,13.70
2023-04-29T08:47:34.280Z,14.20
2023-04-29T08:50:04.521Z,14.40
2023-04-29T08:52:33.192Z,15.10
2023-04-29T08:55:05.618Z,15.00
2023-04-29T08:57:40.122Z,16.00
2023-04-29T09:00:10.780Z,16.50
2023-04-29T09:02:45.396Z,17.20
2023-04-29T09:05:13.709Z,17.10
2023-04-29T09:07:42.389Z,16.60
2023-04-29T09:10:11.057Z,16.40
2023-04-29T09:12:39.714Z,16.90
2023-04-29T09:15:09.769Z,16.90
2023-04-29T09:17:46.351Z,16.90
2023-04-29T09:20:23.301Z,17.20
2023-04-29T09:22:53.375Z,17.20
2023-04-29T09:25:24.080Z,17.20
2023-04-29T09:28:04.693Z,17.70
2023-04-29T09:30:32.732Z,18.30
2023-04-29T09:33:10.205Z,18.60
2023-04-29T09:35:41.266Z,19.30
2023-04-29T09:38:18.787Z,19.90
2023-04-29T09:40:58.767Z,20.00
2023-04-29T09:43:27.651Z,19.60
2023-04-29T09:45:55.699Z,20.10
2023-04-29T09:48:33.809Z,20.20
2023-04-29T09:51:03.581Z,19.90
2023-04-29T09:53:31.989Z,18.90
2023-04-29T09:56:03.865Z,18.10
2023-04-29T09:58:40.322Z,17.60
2023-04-29T10:01:08.682Z,17.30
2023-04-29T10:03:38.565Z,16.20
2023-04-29T10:06:08.794Z,15.50
2023-04-29T10:08:36.792Z,15.30
2023-04-29T10:11:05.955Z,15.00
2023-04-29T10:13:39.584Z,15.30
2023-04-29T10:16:28.030Z,16.40
2023-04-29T10:18:57.566Z,16.30
2023-04-29T10:21:30.310Z,16.80
2023-04-29T10:24:02.175Z,18.20
2023-04-29T10:26:32.290Z,18.60
2023-04-29T10:29:01.093Z,19.10
2023-04-29T10:31:32.536Z,19.40
2023-04-29T10:34:01.802Z,18.50
2023-04-29T10:36:31.685Z,19.10
2023-04-29T10:39:04.020Z,18.80
2023-04-29T10:41:49.907Z,18.80
2023-04-29T10:44:19.009Z,19.00
2023-04-29T10:46:46.868Z,18.70
2023-04-29T10:49:15.244Z,18.40
2023-04-29T10:51:45.233Z,18.80
2023-04-29T10:54:17.582Z,19.50
2023-04-29T10:56:53.273Z,19.20
2023-04-29T10:59:22.651Z,19.20
2023-04-29T11:01:52.257Z,19.10
2023-04-29T11:04:21.781Z,19.50
2023-04-29T11:06:54.714Z,20.20
2023-04-29T11:09:28.668Z,20.50
2023-04-29T11:12:04.176Z,20.60
2023-04-29T11:14:42.234Z,20.50
2023-04-29T11:17:10.947Z,21.00
2023-04-29T11:19:45.450Z,21.30
2023-04-29T11:22:15.034Z,20.50
2023-04-29T11:25:00.668Z,20.60
2023-04-29T11:27:36.856Z,20.30
2023-04-29T11:30:06.928Z,21.00
2023-04-29T11:32:39.256Z,21.80
2023-04-29T11:35:12.632Z,21.20
2023-04-29T11:37:41.632Z,20.30
2023-04-29T11:40:10.834Z,19.80
2023-04-29T11:42:44.513Z,19.60
2023-04-29T11:45:13.025Z,19.00
2023-04-29T11:47:48.172Z,18.40
2023-04-29T11:50:17.941Z,18.30
2023-04-29T11:52:47.905Z,18.20
2023-04-29T11:55:16.115Z,17.90
2023-04-29T11:57:43.927Z,17.60
2023-04-29T12:00:13.879Z,18.60
2023-04-29T12:02:46.533Z,19.00
2023-04-29T12:05:16.975Z,18.20
2023-04-29T12:07:45.400Z,17.90
2023-04-29T12:10:13.384Z,17.70
2023-04-29T12:12:43.732Z,17.50
2023-04-29T12:15:12.705Z,17.50
2023-04-29T12:17:41.466Z,18.10
2023-04-29T12:20:11.306Z,18.30
2023-04-29T12:22:39.378Z,18.00
2023-04-29T12:25:08.196Z,17.50
2023-04-29T12:27:44.382Z,17.40
2023-04-29T12:30:12.849Z,17.30
2023-04-29T12:32:41.107Z,17.10
2023-04-29T12:35:18.223Z,17.00
2023-04-29T12:37:51.016Z,16.60
2023-04-29T12:40:20.693Z,16.40
2023-04-29T12:42:49.009Z,16.40
2023-04-29T12:45:35.291Z,16.60
2023-04-29T12:48:07.261Z,16.90
2023-04-29T12:50:38.899Z,17.40
2023-04-29T12:53:08.163Z,17.30
2023-04-29T12:55:39.355Z,17.20
2023-04-29T12:58:07.595Z,18.00
2023-04-29T13:00:38.267Z,18.30
2023-04-29T13:03:06.454Z,18.10
2023-04-29T13:05:37.025Z,18.30
2023-04-29T13:08:08.558Z,18.90
2023-04-29T13:10:36.299Z,19.10
2023-04-29T13:13:04.119Z,18.90
2023-04-29T13:15:33.332Z,19.00
2023-04-29T13:18:01.518Z,19.00
2023-04-29T13:20:29.376Z,19.10
2023-04-29T13:22:57.222Z,19.10
2023-04-29T13:25:24.956Z,19.00
2023-04-29T13:27:53.308Z,18.90
2023-04-29T13:30:21.057Z,19.10
2023-04-29T13:32:54.744Z,19.00
2023-04-29T13:35:23.154Z,19.30
2023-04-29T13:37:51.084Z,18.90
2023-04-29T13:40:21.236Z,18.70
2023-04-29T13:42:53.358Z,18.70
2023-04-29T13:45:30.470Z,18.80
2023-04-29T13:48:09.445Z,18.70
2023-04-29T14:03:20.468Z,18.90
2023-04-29T14:05:48.558Z,19.30
2023-04-29T14:08:16.278Z,18.60
2023-04-29T14:10:44.570Z,18.60
2023-04-29T14:13:12.618Z,18.90
2023-04-29T14:15:41.457Z,19.10
2023-04-29T14:18:10.896Z,19.40
2023-04-29T14:20:39.386Z,19.50
2023-04-29T14:23:07.056Z,19.40
2023-04-29T14:25:34.840Z,19.30
2023-04-29T14:28:02.693Z,19.40
2023-04-29T14:30:30.464Z,19.10
2023-04-29T14:32:58.351Z,18.50
2023-04-29T14:35:26.179Z,18.10
2023-04-29T14:37:53.994Z,18.10
2023-04-29T14:40:21.767Z,18.20
2023-04-29T14:42:49.427Z,17.80
2023-04-29T14:45:17.557Z,17.40
2023-04-29T14:47:46.120Z,17.40
2023-04-29T14:50:13.967Z,17.30
2023-04-29T14:52:41.722Z,17.60
2023-04-29T14:55:09.676Z,18.00
2023-04-29T14:57:37.439Z,18.30
2023-04-29T15:00:05.682Z,18.40
2023-04-29T15:02:34.543Z,18.40
2023-04-29T15:05:04.144Z,18.60
2023-04-29T15:07:33.975Z,18.50
2023-04-29T15:10:02.459Z,18.50
2023-04-29T15:12:30.271Z,18.50
2023-04-29T15:14:57.927Z,18.40
2023-04-29T15:17:26.543Z,18.10
2023-04-29T15:19:54.322Z,17.80
2023-04-29T15:22:22.073Z,17.80
2023-04-29T15:24:52.155Z,17.60
2023-04-29T15:27:19.939Z,17.40
2023-04-29T15:29:48.068Z,17.10
2023-04-29T15:32:16.186Z,17.10
2023-04-29T15:34:44.281Z,16.60
2023-04-29T15:37:11.964Z,16.70
2023-04-29T15:39:59.730Z,16.60
2023-04-29T15:42:27.972Z,16.30
2023-04-29T15:44:56.245Z,16.00
2023-04-29T15:47:23.873Z,15.80
2023-04-29T15:49:52.547Z,15.60
2023-04-29T15:52:20.735Z,15.50
2023-04-29T15:54:48.813Z,15.40
2023-04-29T15:57:16.553Z,15.50
2023-04-29T15:59:44.706Z,15.30
2023-04-29T16:02:12.880Z,15.40
2023-04-29T16:04:40.694Z,15.30
2023-04-29T16:07:08.554Z,15.20
2023-04-29T16:09:36.962Z,15.10
2023-04-29T16:12:04.809Z,14.90
2023-04-29T16:14:33.105Z,14.90
2023-04-29T16:17:01.097Z,14.70
2023-04-29T16:19:28.850Z,14.60
2023-04-29T16:21:56.813Z,14.60
2023-04-29T16:24:24.614Z,14.60
2023-04-29T16:26:52.383Z,14.60
2023-04-29T16:29:20.079Z,14.60
2023-04-29T16:31:50.666Z,14.70
2023-04-29T16:34:24.862Z,14.70
2023-04-29T16:36:52.680Z,14.90
2023-04-29T16:39:20.358Z,14.80
2023-04-29T16:41:48.107Z,14.70
2023-04-29T16:44:17.414Z,14.70
2023-04-29T16:46:45.477Z,14.60
2023-04-29T16:49:13.827Z,14.50
2023-04-29T16:51:41.757Z,14.30
2023-04-29T16:54:09.772Z,14.30
2023-04-29T16:56:37.469Z,14.20
2023-04-29T16:59:05.178Z,13.90
2023-04-29T17:01:32.965Z,13.80
2023-04-29T17:04:01.410Z,13.80
2023-04-29T17:06:32.435Z,13.40
2023-04-29T17:09:01.028Z,13.20
2023-04-29T17:11:29.089Z,13.20
2023-04-29T17:13:59.856Z,13.20
2023-04-29T17:16:27.605Z,12.90
2023-04-29T17:18:55.239Z,12.80
2023-04-29T17:21:26.116Z,12.70
2023-04-29T17:23:54.434Z,12.60
2023-04-29T17:26:22.828Z,12.50
2023-04-29T17:28:51.969Z,12.50
2023-04-29T17:31:24.937Z,12.60
2023-04-29T17:34:05.113Z,12.50
2023-04-29T17:36:33.394Z,12.40
2023-04-29T17:39:01.120Z,12.50
2023-04-29T17:41:28.889Z,12.60
2023-04-29T17:43:56.580Z,12.80
2023-04-29T17:46:24.337Z,12.80
2023-04-29T17:48:54.504Z,12.80
2023-04-29T17:51:22.350Z,12.80
2023-04-29T17:53:50.012Z,12.80
2023-04-29T17:56:17.821Z,12.80
2023-04-29T17:58:45.576Z,12.80
2023-04-29T18:01:13.469Z,12.70
2023-04-29T18:03:42.201Z,12.60
2023-04-29T18:06:10.078Z,12.40
2023-04-29T18:08:37.797Z,12.10
2023-04-29T18:11:06.084Z,11.90
2023-04-29T18:13:33.810Z,11.70
2023-04-29T18:16:01.538Z,11.50
2023-04-29T18:18:29.328Z,11.40
2023-04-29T18:20:57.031Z,11.30
2023-04-29T18:23:24.723Z,11.20
2023-04-29T18:25:52.601Z,11.10
2023-04-29T18:28:25.303Z,11.00
2023-04-29T18:30:53.543Z,10.90
2023-04-29T18:33:21.502Z,10.90
2023-04-29T18:35:49.470Z,10.90
2023-04-29T18:38:17.569Z,10.80
2023-04-29T18:40:45.374Z,10.60
2023-04-29T18:43:17.157Z,10.60
2023-04-29T18:45:45.946Z,10.50
2023-04-29T18:48:15.132Z,10.50
2023-04-29T18:50:43.604Z,10.50
2023-04-29T18:53:11.269Z,10.40
2023-04-29T18:55:39.207Z,10.40
2023-04-29T18:58:06.978Z,10.30
2023-04-29T19:00:34.701Z,10.30
2023-04-29T19:03:02.547Z,10.40
2023-04-29T19:05:30.766Z,10.40
2023-04-29T19:07:58.739Z,10.40
2023-04-29T19:10:26.938Z,10.40
2023-04-29T19:12:55.543Z,10.40
2023-04-29T19:15:25.286Z,10.40
2023-04-29T19:17:53.214Z,10.40
2023-04-29T19:20:21.033Z,10.50
2023-04-29T19:22:48.848Z,10.50
2023-04-29T19:25:16.597Z,10.50
2023-04-29T19:27:49.004Z,10.40
2023-04-29T19:30:16.844Z,10.30
2023-04-29T19:32:46.268Z,10.20
2023-04-29T19:35:14.370Z,10.10
2023-04-29T19:37:42.065Z,10.00
2023-04-29T19:40:11.393Z,9.70
2023-04-29T19:42:42.369Z,9.60
2023-04-29T19:45:10.403Z,9.40
2023-04-29T19:47:38.215Z,9.30
2023-04-29T19:50:06.440Z,9.20
2023-04-29T19:52:34.065Z,9.00
2023-04-29T19:55:01.815Z,9.00
2023-04-29T19:57:30.579Z,8.80
2023-04-29T19:59:58.432Z,8.80
2023-04-29T20:02:26.553Z,8.80
2023-04-29T20:04:54.488Z,8.70
2023-04-29T20:07:22.927Z,8.70
2023-04-29T20:10:01.154Z,8.70
2023-04-29T20:12:28.845Z,8.60
2023-04-29T20:14:57.812Z,8.50
2023-04-29T20:17:25.846Z,8.40
2023-04-29T20:19:53.668Z,8.40
2023-04-29T20:22:21.452Z,8.40
2023-04-29T20:24:49.222Z,8.30
2023-04-29T20:27:16.972Z,8.20
2023-04-29T20:29:45.012Z,8.20
2023-04-29T20:32:13.097Z,8.20
2023-04-29T20:34:40.840Z,8.30
2023-04-29T20:37:09.747Z,8.30
2023-04-29T20:39:38.005Z,8.10
2023-04-29T20:42:06.069Z,8.10
2023-04-29T20:44:33.672Z,7.90
2023-04-29T20:47:01.362Z,7.80
2023-04-29T20:49:28.989Z,7.80
2023-04-29T20:51:57.198Z,7.80
2023-04-29T20:54:25.077Z,7.80
2023-04-29T20:56:53.045Z,7.80
2023-04-29T20:59:20.819Z,7.70
2023-04-29T21:01:48.594Z,7.70
2023-04-29T21:04:16.662Z,7.60
2023-04-29T21:06:44.594Z,7.60
2023-04-29T21:09:12.660Z,7.50
2023-04-29T21:11:40.368Z,7.50
2023-04-29T21:14:08.013Z,7.40
2023-04-29T21:16:35.729Z,7.20
2023-04-29T21:19:03.493Z,7.20
2023-04-29T21:21:31.837Z,7.20
2023-04-29T21:23:59.515Z,7.10
2023-04-29T21:26:27.490Z,7.00
2023-04-29T21:28:55.277Z,7.10
2023-04-29T21:31:22.925Z,7.10
2023-04-29T21:33:50.769Z,7.00
2023-04-29T21:36:18.569Z,7.00
2023-04-29T21:38:46.359Z,6.90
2023-04-29T21:41:28.754Z,7.00
2023-04-29T21:43:59.394Z,7.00
2023-04-29T21:46:35.232Z,7.00
2023-04-29T21:49:03.179Z,6.80
2023-04-29T21:51:31.815Z,6.70
2023-04-29T21:53:59.506Z,6.80
2023-04-29T21:56:27.346Z,6.80
2023-04-29T21:58:55.172Z,6.80
2023-04-29T22:01:48.814Z,6.80
2023-04-29T22:04:17.280Z,6.70
2023-04-29T22:06:45.728Z,6.70
2023-04-29T22:09:13.542Z,6.70
2023-04-29T22:11:41.251Z,6.70
2023-04-29T22:14:08.947Z,6.70
2023-04-29T22:16:37.243Z,6.60
2023-04-29T22:19:05.962Z,6.60
2023-04-29T22:21:33.995Z,6.60
2023-04-29T22:24:01.820Z,6.60
2023-04-29T22:26:29.499Z,6.60
2023-04-29T22:28:57.970Z,6.60
2023-04-29T22:31:25.813Z,6.60
2023-04-29T22:33:53.747Z,6.60
2023-04-29T22:36:21.438Z,6.70
2023-04-29T22:38:49.354Z,6.70
2023-04-29T22:41:17.002Z,6.40
2023-04-29T22:43:44.841Z,6.50
2023-04-29T22:46:12.591Z,6.50
2023-04-29T22:48:40.305Z,6.50
2023-04-29T22:51:08.110Z,6.50
2023-04-29T22:53:38.816Z,6.40
2023-04-29T22:56:06.670Z,6.40
2023-04-29T22:58:34.520Z,6.50
2023-04-29T23:01:02.198Z,6.40
2023-04-29T23:03:29.981Z,6.40
2023-04-29T23:05:59.809Z,6.40
2023-04-29T23:08:28.055Z,6.50
2023-04-29T23:10:55.838Z,6.50
2023-04-29T23:13:23.954Z,6.60
2023-04-29T23:15:52.431Z,6.60
2023-04-29T23:18:20.135Z,6.60
2023-04-29T23:20:48.106Z,6.70
2023-04-29T23:23:15.970Z,6.70
2023-04-29T23:25:45.323Z,6.70
2023-04-29T23:28:13.082Z,6.70
2023-04-29T23:30:40.867Z,6.70
2023-04-29T23:33:09.155Z,6.60
2023-04-29T23:35:37.076Z,6.60
2023-04-29T23:38:04.875Z,6.60
2023-04-29T23:40:32.646Z,6.50
2023-04-29T23:43:00.347Z,6.40
2023-04-29T23:45:28.100Z,6.40
2023-04-29T23:47:55.740Z,6.40
2023-04-29T23:50:23.479Z,6.40
2023-04-29T23:52:51.282Z,6.20
2023-04-29T23:55:20.664Z,6.10
2023-04-29T23:57:48.401Z,6.10
